Time;durP1;ratioP1;P1;durP2;ratioP2;P2;SDS_P1;SDS_P2;PMS_P1;PMS_P2;Temp;Humidity;BMP_temperature;BMP_pressure;BME280_temperature;BME280_humidity;BME280_pressure;Samples;Min_cycle;Max_cycle;Signal;HPM_P1;HPM_P2
2023/12/12 00:01:50;;;;;;;6.60;4.50;;;;;;;5.47;100.00;97734.48;109564;1251;65102;-73
2023/12/12 00:04:16;;;;;;;6.90;4.40;;;;;;;5.50;100.00;97737.33;109557;1251;59000;-73
2023/12/12 00:06:43;;;;;;;7.40;4.60;;;;;;;5.52;100.00;97739.13;109567;1251;59234;-73
2023/12/12 00:09:09;;;;;;;8.30;4.60;;;;;;;5.54;100.00;97736.54;109623;1250;67157;-73
2023/12/12 00:11:36;;;;;;;7.90;3.80;;;;;;;5.55;100.00;97737.36;109546;1251;61507;-74
2023/12/12 00:14:03;;;;;;;9.80;4.80;;;;;;;5.57;100.00;97742.70;109610;1251;62892;-74
2023/12/12 00:16:29;;;;;;;5.70;4.00;;;;;;;5.59;100.00;97746.39;109538;1251;59091;-74
2023/12/12 00:18:56;;;;;;;11.10;5.10;;;;;;;5.62;100.00;97750.82;109597;1251;59030;-74
2023/12/12 00:21:22;;;;;;;5.30;4.00;;;;;;;5.63;100.00;97754.77;109595;1253;67461;-74
2023/12/12 00:23:49;;;;;;;7.90;3.80;;;;;;;5.65;100.00;97759.73;109627;1251;61096;-74
2023/12/12 00:26:15;;;;;;;7.50;4.10;;;;;;;5.69;100.00;97767.41;109523;1251;65082;-74
2023/12/12 00:28:42;;;;;;;6.10;4.00;;;;;;;5.71;100.00;97767.82;109552;1251;59001;-74
2023/12/12 00:31:09;;;;;;;6.90;4.00;;;;;;;5.73;100.00;97773.67;109629;1251;59756;-74
2023/12/12 00:33:35;;;;;;;8.30;4.30;;;;;;;5.72;100.00;97777.39;109550;1251;67015;-74
2023/12/12 00:36:02;;;;;;;6.50;4.10;;;;;;;5.74;100.00;97781.19;109577;1251;61191;-74
2023/12/12 00:38:29;;;;;;;5.40;3.20;;;;;;;5.73;100.00;97779.80;109573;1251;65022;-74
2023/12/12 00:40:56;;;;;;;6.10;4.40;;;;;;;5.73;100.00;97778.79;109522;1251;59015;-74
2023/12/12 00:43:24;;;;;;;9.80;4.30;;;;;;;5.74;100.00;97786.98;109600;1251;59763;-73
2023/12/12 00:45:50;;;;;;;6.00;3.50;;;;;;;5.77;100.00;97787.52;109592;1254;67348;-74
2023/12/12 00:48:17;;;;;;;6.30;4.00;;;;;;;5.79;100.00;97793.34;109540;1251;61059;-73
2023/12/12 00:50:44;;;;;;;5.30;3.70;;;;;;;5.79;100.00;97793.92;109600;1251;65171;-73
2023/12/12 00:53:11;;;;;;;6.00;3.30;;;;;;;5.75;100.00;97791.01;109586;1251;59198;-73
2023/12/12 00:55:38;;;;;;;5.80;3.90;;;;;;;5.76;100.00;97799.25;109614;1251;59148;-74
2023/12/12 00:58:05;;;;;;;9.30;4.60;;;;;;;5.76;100.00;97799.39;109581;1251;67026;-73
2023/12/12 01:00:31;;;;;;;6.20;3.50;;;;;;;5.77;100.00;97804.27;109574;1251;61168;-74
2023/12/12 01:02:58;;;;;;;4.80;3.60;;;;;;;5.78;100.00;97808.40;109579;1251;65089;-74
2023/12/12 01:05:25;;;;;;;9.30;4.50;;;;;;;5.81;100.00;97813.11;109570;1251;59016;-73
2023/12/12 01:07:52;;;;;;;7.90;4.20;;;;;;;5.83;100.00;97815.47;109570;1251;59324;-73
2023/12/12 01:10:19;;;;;;;6.40;3.80;;;;;;;5.85;100.00;97818.83;109573;1251;67016;-73
2023/12/12 01:12:46;;;;;;;6.20;3.80;;;;;;;5.87;100.00;97818.58;109560;1251;60138;-74
2023/12/12 01:15:13;;;;;;;5.90;4.20;;;;;;;5.89;100.00;97816.13;109540;1251;64007;-74
2023/12/12 01:17:39;;;;;;;5.50;3.50;;;;;;;5.90;100.00;97814.45;109567;1251;58971;-74
2023/12/12 01:20:07;;;;;;;8.60;4.70;;;;;;;5.92;100.00;97817.50;109548;1251;59066;-74
2023/12/12 01:22:34;;;;;;;6.80;4.30;;;;;;;5.93;100.00;97816.76;109582;1251;67186;-75
2023/12/12 01:25:00;;;;;;;5.60;3.50;;;;;;;5.94;100.00;97823.92;109605;1251;61056;-74
2023/12/12 01:27:27;;;;;;;7.10;3.60;;;;;;;5.94;100.00;97821.61;109510;1251;65025;-73
2023/12/12 01:29:54;;;;;;;6.90;3.80;;;;;;;5.95;100.00;97819.80;109596;1251;59154;-73
2023/12/12 01:32:21;;;;;;;6.90;3.90;;;;;;;5.97;100.00;97824.64;109634;1251;59096;-73
2023/12/12 01:34:47;;;;;;;5.40;3.50;;;;;;;5.98;100.00;97825.81;109566;1251;66927;-74
2023/12/12 01:37:14;;;;;;;5.20;3.60;;;;;;;6.00;100.00;97828.31;109526;1251;60956;-73
2023/12/12 01:39:41;;;;;;;6.60;3.50;;;;;;;6.00;100.00;97824.42;109537;1251;65068;-72
2023/12/12 01:42:08;;;;;;;4.20;3.00;;;;;;;6.00;100.00;97829.53;109560;1251;58988;-73
2023/12/12 01:44:34;;;;;;;6.90;3.70;;;;;;;6.00;100.00;97837.98;109542;1251;59091;-72
2023/12/12 01:47:01;;;;;;;5.50;3.10;;;;;;;6.00;100.00;97841.70;109414;1251;65861;-73
2023/12/12 01:49:28;;;;;;;5.20;3.10;;;;;;;6.00;100.00;97842.04;109602;1251;60942;-73
2023/12/12 01:51:55;;;;;;;6.10;3.10;;;;;;;5.99;100.00;97845.48;109614;1251;64804;-73
2023/12/12 01:54:22;;;;;;;5.20;2.90;;;;;;;5.96;100.00;97844.97;109554;1251;58955;-74
2023/12/12 01:56:50;;;;;;;6.70;3.20;;;;;;;5.97;100.00;97846.68;109578;1251;59133;-73
2023/12/12 01:59:19;;;;;;;5.60;3.30;;;;;;;5.96;100.00;97849.02;109567;1251;66006;-72
2023/12/12 02:01:48;;;;;;;8.10;3.50;;;;;;;5.95;100.00;97848.58;109562;1251;61001;-73
2023/12/12 02:04:16;;;;;;;6.10;3.00;;;;;;;5.94;100.00;97848.23;109545;1251;65262;-73
2023/12/12 02:06:44;;;;;;;4.80;3.20;;;;;;;5.93;100.00;97848.14;109553;1256;59009;-74
2023/12/12 02:09:11;;;;;;;6.60;3.50;;;;;;;5.91;100.00;97854.27;109601;1251;59239;-73
2023/12/12 02:11:37;;;;;;;5.80;3.20;;;;;;;5.90;100.00;97853.26;109585;1251;66108;-74
2023/12/12 02:14:04;;;;;;;5.70;3.60;;;;;;;5.89;100.00;97854.92;109243;1251;61194;-73
2023/12/12 02:16:31;;;;;;;4.40;3.10;;;;;;;5.88;100.00;97854.30;109535;1251;65403;-73
2023/12/12 02:18:57;;;;;;;4.20;3.00;;;;;;;5.86;100.00;97853.67;109546;1251;58994;-74
2023/12/12 02:21:24;;;;;;;7.50;3.10;;;;;;;5.84;100.00;97853.28;109615;1251;58834;-74
2023/12/12 02:23:51;;;;;;;4.10;2.50;;;;;;;5.83;100.00;97855.98;109547;1251;67046;-73
2023/12/12 02:26:18;;;;;;;8.60;3.60;;;;;;;5.85;100.00;97858.19;109253;1251;60479;-74
2023/12/12 02:28:45;;;;;;;5.00;3.10;;;;;;;5.84;100.00;97861.58;109551;1251;65174;-74
2023/12/12 02:31:12;;;;;;;4.00;2.90;;;;;;;5.83;100.00;97860.09;109537;1251;59224;-71
2023/12/12 02:33:39;;;;;;;5.20;3.20;;;;;;;5.81;100.00;97863.52;109606;1251;58969;-74
2023/12/12 02:36:06;;;;;;;6.30;3.10;;;;;;;5.78;100.00;97855.99;109337;1251;64404;-74
2023/12/12 02:38:32;;;;;;;5.30;3.10;;;;;;;5.75;100.00;97855.84;109559;1251;60209;-73
2023/12/12 02:40:59;;;;;;;5.00;2.80;;;;;;;5.73;100.00;97856.48;109653;1251;63977;-73
2023/12/12 02:43:27;;;;;;;6.50;2.90;;;;;;;5.70;100.00;97858.59;109514;1251;58985;-73
2023/12/12 02:45:54;;;;;;;6.00;2.80;;;;;;;5.66;100.00;97862.40;109554;1251;59063;-73
2023/12/12 02:48:21;;;;;;;7.20;3.30;;;;;;;5.63;100.00;97862.11;109547;1251;66064;-73
2023/12/12 02:50:47;;;;;;;6.60;3.10;;;;;;;5.61;100.00;97861.69;109561;1251;60041;-73
2023/12/12 02:53:14;;;;;;;5.70;3.40;;;;;;;5.61;100.00;97866.77;109570;1251;65161;-73
2023/12/12 02:55:41;;;;;;;4.60;2.80;;;;;;;5.62;100.00;97870.73;109585;1251;58964;-73
2023/12/12 02:58:07;;;;;;;5.40;2.80;;;;;;;5.62;100.00;97872.15;109551;1251;59098;-73
2023/12/12 03:00:34;;;;;;;6.30;3.40;;;;;;;5.63;100.00;97869.65;109597;1251;67089;-73
2023/12/12 03:03:00;;;;;;;6.00;3.30;;;;;;;5.64;100.00;97873.45;109563;1251;60377;-73
2023/12/12 03:05:27;;;;;;;5.70;3.10;;;;;;;5.66;100.00;97875.27;109535;1251;63696;-73
2023/12/12 03:07:54;;;;;;;3.80;2.90;;;;;;;5.68;100.00;97888.34;109527;1251;58911;-74
2023/12/12 03:10:20;;;;;;;6.10;2.70;;;;;;;5.69;100.00;97892.66;109543;1251;59348;-73
2023/12/12 03:12:47;;;;;;;6.40;2.70;;;;;;;5.71;100.00;97894.15;109538;1251;66259;-73
2023/12/12 03:15:14;;;;;;;5.00;2.70;;;;;;;5.71;100.00;97891.14;109625;1251;60241;-74
2023/12/12 03:17:40;;;;;;;5.70;2.80;;;;;;;5.72;100.00;97895.34;109560;1251;64052;-74
2023/12/12 03:20:08;;;;;;;3.80;2.50;;;;;;;5.74;100.00;97893.11;109407;1251;59028;-73
2023/12/12 03:22:34;;;;;;;5.30;2.60;;;;;;;5.75;100.00;97896.41;109339;1251;58993;-73
2023/12/12 03:25:01;;;;;;;2.90;2.50;;;;;;;5.75;100.00;97897.27;109575;1251;67074;-73
2023/12/12 03:27:27;;;;;;;6.10;2.70;;;;;;;5.76;100.00;97898.44;109637;1251;61222;-73
2023/12/12 03:29:57;;;;;;;3.20;2.50;;;;;;;5.74;100.00;97902.97;109358;1251;65040;-73
2023/12/12 03:32:24;;;;;;;6.90;3.10;;;;;;;5.73;100.00;97907.23;109521;1255;59033;-73
2023/12/12 03:34:50;;;;;;;5.90;2.80;;;;;;;5.73;100.00;97907.23;109570;1251;58845;-73
2023/12/12 03:37:17;;;;;;;4.10;2.60;;;;;;;5.74;100.00;97912.98;109383;1251;67011;-73
2023/12/12 03:39:44;;;;;;;5.20;2.20;;;;;;;5.76;100.00;97919.07;109593;1251;61064;-73
2023/12/12 03:42:11;;;;;;;5.50;2.90;;;;;;;5.75;100.00;97917.70;109493;1251;64951;-73
2023/12/12 03:44:37;;;;;;;4.20;2.60;;;;;;;5.75;100.00;97917.02;109597;1251;59132;-74
2023/12/12 03:47:04;;;;;;;4.20;2.50;;;;;;;5.72;100.00;97918.22;109414;1251;59155;-74
2023/12/12 03:49:30;;;;;;;5.30;3.00;;;;;;;5.72;100.00;97916.65;109571;1251;65993;-73
2023/12/12 03:51:57;;;;;;;3.60;2.30;;;;;;;5.70;100.00;97918.92;109571;1251;60061;-74
2023/12/12 03:54:24;;;;;;;5.80;3.10;;;;;;;5.69;100.00;97921.09;109548;1251;65344;-74
2023/12/12 03:56:51;;;;;;;7.70;3.00;;;;;;;5.69;100.00;97924.41;109461;1251;158357;-72
2023/12/12 03:59:18;;;;;;;4.80;2.60;;;;;;;5.69;100.00;97927.95;109597;1251;58967;-72
2023/12/12 04:01:48;;;;;;;3.10;2.70;;;;;;;5.69;100.00;97926.03;109568;1251;66986;-73
2023/12/12 04:04:17;;;;;;;4.20;2.50;;;;;;;5.68;100.00;97928.52;109600;1251;61025;-75
2023/12/12 04:06:47;;;;;;;5.40;2.50;;;;;;;5.68;100.00;97931.86;109582;1251;64158;-73
2023/12/12 04:09:15;;;;;;;3.90;2.70;;;;;;;5.69;100.00;97934.84;108823;1251;1006461;-74
2023/12/12 04:11:41;;;;;;;4.00;2.70;;;;;;;5.67;100.00;97938.99;109529;1255;58887;-73
2023/12/12 04:14:08;;;;;;;5.30;2.90;;;;;;;5.66;100.00;97934.49;109581;1251;65836;-73
2023/12/12 04:16:35;;;;;;;3.20;2.20;;;;;;;5.65;100.00;97934.20;109606;1252;60044;-73
2023/12/12 04:19:01;;;;;;;5.10;2.90;;;;;;;5.64;100.00;97939.55;109547;1251;63972;-73
2023/12/12 04:21:29;;;;;;;6.30;3.10;;;;;;;5.64;100.00;97936.52;109522;1251;59041;-73
2023/12/12 04:23:55;;;;;;;4.40;2.50;;;;;;;5.63;100.00;97940.98;109362;1251;59334;-73
2023/12/12 04:26:22;;;;;;;6.80;2.70;;;;;;;5.62;100.00;97942.10;109560;1251;67030;-73
2023/12/12 04:28:49;;;;;;;5.20;2.70;;;;;;;5.62;100.00;97945.10;109589;1251;60750;-73
2023/12/12 04:31:16;;;;;;;4.60;2.40;;;;;;;5.62;100.00;97949.52;109550;1251;65373;-73
2023/12/12 04:33:43;;;;;;;4.30;2.80;;;;;;;5.61;100.00;97948.55;109530;1251;59024;-74
2023/12/12 04:36:14;;;;;;;5.00;2.60;;;;;;;5.61;100.00;97950.31;109353;1251;59104;-73
2023/12/12 04:38:40;;;;;;;5.80;3.00;;;;;;;5.61;100.00;97949.63;109593;1253;66100;-74
2023/12/12 04:41:08;;;;;;;2.90;2.20;;;;;;;5.61;100.00;97953.14;109550;1255;61235;-73
2023/12/12 04:43:35;;;;;;;5.40;2.80;;;;;;;5.60;100.00;97961.45;109605;1251;63741;-73
2023/12/12 04:46:02;;;;;;;5.30;2.50;;;;;;;5.59;100.00;97967.52;109585;1251;58976;-73
2023/12/12 04:48:28;;;;;;;5.70;3.40;;;;;;;5.59;100.00;97962.25;109555;1251;59167;-73
2023/12/12 04:50:55;;;;;;;4.30;2.60;;;;;;;5.59;100.00;97965.58;109472;1251;66200;-73
2023/12/12 04:53:21;;;;;;;4.40;2.90;;;;;;;5.60;100.00;97971.50;109596;1251;60080;-73
2023/12/12 04:55:48;;;;;;;4.00;2.40;;;;;;;5.62;100.00;97975.46;109575;1251;65119;-73
2023/12/12 04:58:14;;;;;;;5.40;2.50;;;;;;;5.61;100.00;97979.35;109534;1251;58992;-72
2023/12/12 05:00:41;;;;;;;5.20;2.80;;;;;;;5.59;100.00;97980.02;109565;1251;59039;-73
2023/12/12 05:03:07;;;;;;;4.90;2.40;;;;;;;5.58;100.00;97988.22;109564;1251;67233;-74
2023/12/12 05:05:34;;;;;;;5.70;2.70;;;;;;;5.58;100.00;97988.59;109558;1251;60202;-73
2023/12/12 05:08:01;;;;;;;5.00;2.50;;;;;;;5.57;100.00;97984.02;109572;1251;64959;-74
2023/12/12 05:10:27;;;;;;;7.60;2.60;;;;;;;5.59;100.00;97990.06;109583;1251;58947;-74
2023/12/12 05:12:54;;;;;;;5.10;2.50;;;;;;;5.60;100.00;97990.33;109538;1251;59109;-74
2023/12/12 05:15:20;;;;;;;5.50;2.20;;;;;;;5.60;100.00;97993.73;109555;1251;67005;-74
2023/12/12 05:17:47;;;;;;;8.20;3.40;;;;;;;5.57;100.00;97996.55;109627;1251;61091;-74
2023/12/12 05:20:13;;;;;;;5.30;2.50;;;;;;;5.54;100.00;98004.81;109529;1251;64007;-74
2023/12/12 05:22:40;;;;;;;5.80;2.70;;;;;;;5.52;100.00;98010.23;109536;1251;59006;-75
2023/12/12 05:25:07;;;;;;;6.20;2.70;;;;;;;5.50;100.00;98015.82;109573;1251;59128;-74
2023/12/12 05:27:34;;;;;;;5.60;2.90;;;;;;;5.49;100.00;98016.77;109559;1255;66934;-74
2023/12/12 05:30:00;;;;;;;5.20;2.60;;;;;;;5.48;100.00;98015.46;109553;1251;60134;-76
2023/12/12 05:32:27;;;;;;;6.40;3.10;;;;;;;5.46;100.00;98015.19;109417;1251;65223;-74
2023/12/12 05:34:54;;;;;;;5.20;3.30;;;;;;;5.44;100.00;98020.57;109560;1251;59063;-73
2023/12/12 05:37:21;;;;;;;5.80;3.10;;;;;;;5.42;100.00;98026.55;109561;1251;59073;-74
2023/12/12 05:39:47;;;;;;;4.80;3.00;;;;;;;5.39;100.00;98032.19;109571;1250;67156;-74
2023/12/12 05:42:14;;;;;;;5.90;2.90;;;;;;;5.37;100.00;98033.88;109541;1251;60025;-74
2023/12/12 05:44:41;;;;;;;7.10;3.00;;;;;;;5.36;100.00;98034.88;109540;1251;65081;-74
2023/12/12 05:47:09;;;;;;;6.00;3.20;;;;;;;5.34;100.00;98040.46;109245;1251;58969;-74
2023/12/12 05:49:35;;;;;;;5.60;3.20;;;;;;;5.33;100.00;98042.10;109573;1251;59018;-74
2023/12/12 05:52:04;;;;;;;7.60;3.60;;;;;;;5.32;100.00;98045.14;109587;1251;67013;-74
2023/12/12 05:54:30;;;;;;;4.80;3.00;;;;;;;5.30;100.00;98048.23;109602;1251;61096;-74
2023/12/12 05:56:57;;;;;;;8.30;3.50;;;;;;;5.30;100.00;98054.96;109588;1251;65214;-73
2023/12/12 05:59:23;;;;;;;7.30;3.40;;;;;;;5.29;100.00;98057.13;109530;1251;58987;-73
2023/12/12 06:01:50;;;;;;;8.40;4.10;;;;;;;5.26;100.00;98055.86;109528;1251;58968;-73
2023/12/12 06:04:17;;;;;;;5.70;3.90;;;;;;;5.25;100.00;98060.54;109620;1251;65916;-74
2023/12/12 06:06:44;;;;;;;5.10;3.30;;;;;;;5.23;100.00;98068.55;109587;1251;60127;-74
2023/12/12 06:09:11;;;;;;;5.20;3.30;;;;;;;5.21;100.00;98072.92;109571;1251;65616;-75
2023/12/12 06:11:38;;;;;;;5.80;3.30;;;;;;;5.19;100.00;98073.95;109524;1251;59029;-74
2023/12/12 06:14:05;;;;;;;4.50;3.40;;;;;;;5.17;100.00;98076.33;109601;1251;58865;-73
2023/12/12 06:16:33;;;;;;;5.30;3.60;;;;;;;5.15;100.00;98087.70;109584;1251;67089;-74
2023/12/12 06:19:04;;;;;;;7.90;3.80;;;;;;;5.14;100.00;98091.14;109602;1251;60074;-73
2023/12/12 06:21:32;;;;;;;4.50;3.20;;;;;;;5.13;100.00;98090.66;109592;1251;63801;-73
2023/12/12 06:24:00;;;;;;;6.90;3.50;;;;;;;5.12;100.00;98091.80;109575;1251;58977;-73
2023/12/12 06:26:27;;;;;;;7.90;4.00;;;;;;;5.09;100.00;98094.56;109584;1251;58960;-73
2023/12/12 06:28:53;;;;;;;10.10;3.40;;;;;;;5.09;100.00;98099.16;109547;1251;66951;-73
2023/12/12 06:31:22;;;;;;;5.40;3.70;;;;;;;5.09;100.00;98100.94;109584;1251;61133;-73
2023/12/12 06:33:50;;;;;;;7.40;4.10;;;;;;;5.09;100.00;98100.91;109320;1251;64995;-72
2023/12/12 06:36:17;;;;;;;8.50;4.00;;;;;;;5.11;100.00;98108.90;109341;1251;58994;-73
2023/12/12 06:38:44;;;;;;;9.00;3.70;;;;;;;5.14;100.00;98113.32;109566;1251;58877;-73
2023/12/12 06:41:11;;;;;;;7.50;4.00;;;;;;;5.15;100.00;98117.13;109580;1251;67155;-73
2023/12/12 06:43:38;;;;;;;7.00;4.20;;;;;;;5.16;100.00;98121.96;109317;1251;59044;-74
2023/12/12 06:46:05;;;;;;;7.40;4.40;;;;;;;5.18;100.00;98120.48;109280;1251;63989;-73
2023/12/12 06:48:31;;;;;;;7.30;3.90;;;;;;;5.19;100.00;98120.90;109561;1250;59277;-74
2023/12/12 06:50:58;;;;;;;7.80;4.30;;;;;;;5.20;100.00;98125.08;109562;1251;58954;-75
2023/12/12 06:53:25;;;;;;;9.90;4.40;;;;;;;5.20;100.00;98125.60;109594;1251;65662;-74
2023/12/12 06:55:52;;;;;;;6.60;4.30;;;;;;;5.21;100.00;98129.77;109594;1251;61194;-74
2023/12/12 06:58:20;;;;;;;6.90;5.20;;;;;;;5.22;100.00;98130.98;109553;1251;64033;-73
2023/12/12 07:00:47;;;;;;;9.20;4.90;;;;;;;5.23;100.00;98132.13;109564;1251;58965;-74
2023/12/12 07:03:13;;;;;;;9.50;4.40;;;;;;;5.23;100.00;98136.51;109582;1251;58949;-74
2023/12/12 07:05:40;;;;;;;6.70;4.10;;;;;;;5.23;100.00;98144.11;109594;1251;66906;-74
2023/12/12 07:08:07;;;;;;;8.60;5.10;;;;;;;5.24;100.00;98148.48;109635;1251;61009;-74
2023/12/12 07:10:34;;;;;;;14.40;8.50;;;;;;;5.27;100.00;98150.05;109574;1251;65035;-74
2023/12/12 07:13:00;;;;;;;14.20;9.80;;;;;;;5.31;100.00;98153.14;109567;1251;58959;-74
2023/12/12 07:15:27;;;;;;;11.00;7.60;;;;;;;5.37;100.00;98161.60;109575;1251;58983;-74
2023/12/12 07:17:54;;;;;;;9.20;6.30;;;;;;;5.42;100.00;98165.35;109355;1257;67042;-74
2023/12/12 07:20:21;;;;;;;9.30;5.90;;;;;;;5.45;100.00;98169.77;109586;1250;59826;-74
2023/12/12 07:22:48;;;;;;;6.50;4.90;;;;;;;5.49;100.00;98170.94;109361;1251;62769;-74
2023/12/12 07:25:15;;;;;;;9.90;6.00;;;;;;;5.51;100.00;98174.52;109578;1251;58992;-74
2023/12/12 07:27:42;;;;;;;7.60;5.60;;;;;;;5.51;100.00;98177.35;109587;1251;58920;-74
2023/12/12 07:30:10;;;;;;;6.70;5.90;;;;;;;5.48;100.00;98174.52;109612;1251;65970;-74
2023/12/12 07:32:37;;;;;;;8.90;6.50;;;;;;;5.44;100.00;98173.86;109600;1251;61252;-74
2023/12/12 07:35:04;;;;;;;8.00;6.20;;;;;;;5.43;100.00;98177.58;109570;1251;65164;-74
2023/12/12 07:37:31;;;;;;;9.70;5.40;;;;;;;5.45;100.00;98178.17;109569;1251;59043;-74
2023/12/12 07:39:57;;;;;;;6.50;5.50;;;;;;;5.47;100.00;98178.27;109576;1251;59038;-74
2023/12/12 07:42:24;;;;;;;7.60;5.30;;;;;;;5.49;100.00;98185.39;109584;1251;67268;-74
2023/12/12 07:44:51;;;;;;;8.20;4.40;;;;;;;5.49;100.00;98188.67;109624;1251;61420;-74
2023/12/12 07:47:17;;;;;;;6.60;4.70;;;;;;;5.49;100.00;98192.55;109577;1251;64197;-74
2023/12/12 07:49:45;;;;;;;6.40;4.00;;;;;;;5.49;100.00;98191.36;109591;1251;58959;-74
2023/12/12 07:52:11;;;;;;;5.30;3.70;;;;;;;5.49;100.00;98197.33;109631;1251;58856;-74
2023/12/12 07:54:38;;;;;;;6.60;3.90;;;;;;;5.52;100.00;98201.61;109590;1251;66993;-74
2023/12/12 07:57:05;;;;;;;6.80;4.70;;;;;;;5.54;100.00;98204.12;109565;1251;61161;-74
2023/12/12 07:59:32;;;;;;;9.50;4.80;;;;;;;5.58;100.00;98207.05;109572;1251;64054;-74
2023/12/12 08:01:59;;;;;;;8.90;5.40;;;;;;;5.65;100.00;98213.52;109579;1251;59035;-74
2023/12/12 08:04:26;;;;;;;8.70;5.90;;;;;;;5.71;100.00;98215.40;109563;1251;59093;-74
2023/12/12 08:06:53;;;;;;;8.40;5.10;;;;;;;5.85;100.00;98222.33;109562;1250;67100;-74
2023/12/12 08:09:20;;;;;;;9.20;5.10;;;;;;;5.97;100.00;98222.02;109564;1250;61250;-74
2023/12/12 08:11:46;;;;;;;11.50;5.80;;;;;;;5.97;100.00;98215.88;109579;1251;65009;-74
2023/12/12 08:14:13;;;;;;;9.30;6.00;;;;;;;5.92;100.00;98216.10;109576;1251;59074;-74
2023/12/12 08:16:39;;;;;;;7.40;5.80;;;;;;;5.87;100.00;98215.36;109565;1251;59074;-74
2023/12/12 08:19:06;;;;;;;8.60;5.50;;;;;;;5.83;100.00;98213.13;109435;1251;66013;-74
2023/12/12 08:21:34;;;;;;;8.30;5.20;;;;;;;5.82;100.00;98216.90;109597;1251;61195;-75
2023/12/12 08:24:01;;;;;;;8.40;5.40;;;;;;;5.79;100.00;98222.02;109578;1251;65242;-74
2023/12/12 08:26:29;;;;;;;8.70;4.60;;;;;;;5.76;100.00;98220.94;109600;1251;59118;-74
2023/12/12 08:28:56;;;;;;;8.10;5.00;;;;;;;5.75;100.00;98220.83;109550;1251;59013;-74
2023/12/12 08:31:23;;;;;;;8.10;5.50;;;;;;;5.75;100.00;98222.25;109551;1250;66043;-74
2023/12/12 08:33:50;;;;;;;9.50;6.00;;;;;;;5.77;100.00;98227.64;109618;1251;61633;-74
2023/12/12 08:36:18;;;;;;;10.60;5.20;;;;;;;5.78;100.00;98228.77;109565;1251;64266;-74
2023/12/12 08:38:47;;;;;;;9.70;5.60;;;;;;;5.84;100.00;98234.95;109562;1251;58924;-76
2023/12/12 08:41:14;;;;;;;9.40;5.30;;;;;;;5.90;100.00;98236.14;109430;1251;59024;-74
2023/12/12 08:43:41;;;;;;;10.20;5.40;;;;;;;5.93;100.00;98239.14;109558;1251;67022;-74
2023/12/12 08:46:08;;;;;;;7.40;4.90;;;;;;;5.93;100.00;98243.02;109601;1250;61070;-74
2023/12/12 08:48:34;;;;;;;9.00;6.10;;;;;;;5.92;100.00;98247.11;109547;1251;65074;-74
2023/12/12 08:51:01;;;;;;;7.70;5.30;;;;;;;5.90;100.00;98251.69;109539;1251;59040;-74
2023/12/12 08:53:27;;;;;;;8.90;6.40;;;;;;;5.86;100.00;98252.79;109562;1251;60125;-74
2023/12/12 08:55:58;;;;;;;9.10;6.20;;;;;;;5.83;100.00;98255.81;109543;1251;67307;-74
2023/12/12 08:58:27;;;;;;;9.50;5.80;;;;;;;5.80;100.00;98255.27;109554;1251;61118;-74
2023/12/12 09:00:54;;;;;;;9.70;6.30;;;;;;;5.78;100.00;98255.59;109596;1251;65129;-74
2023/12/12 09:03:21;;;;;;;10.60;7.00;;;;;;;5.77;100.00;98251.02;109543;1251;59016;-74
2023/12/12 09:05:49;;;;;;;13.50;7.00;;;;;;;5.78;100.00;98245.83;109609;1251;59189;-74
2023/12/12 09:08:16;;;;;;;10.10;6.50;;;;;;;5.78;100.00;98250.27;109605;1251;65682;-74
2023/12/12 09:10:43;;;;;;;8.90;6.10;;;;;;;5.74;100.00;98252.80;109276;1251;60159;-73
2023/12/12 09:13:09;;;;;;;11.30;6.30;;;;;;;5.70;100.00;98255.66;109492;1251;64213;-74
2023/12/12 09:15:36;;;;;;;9.60;6.50;;;;;;;5.68;100.00;98257.33;109531;1251;58933;-74
2023/12/12 09:18:03;;;;;;;9.00;6.30;;;;;;;5.69;100.00;98255.88;109646;1251;59037;-72
2023/12/12 09:20:29;;;;;;;10.90;6.50;;;;;;;5.69;100.00;98252.39;109374;1251;67072;-73
2023/12/12 09:22:56;;;;;;;11.50;7.00;;;;;;;5.68;100.00;98255.98;109570;1251;59998;-74
2023/12/12 09:25:22;;;;;;;9.50;7.00;;;;;;;5.66;100.00;98256.60;109598;1251;65032;-74
2023/12/12 09:27:49;;;;;;;9.00;7.20;;;;;;;5.66;100.00;98259.09;109528;1251;59114;-74
2023/12/12 09:30:16;;;;;;;10.40;7.30;;;;;;;5.67;100.00;98260.93;109597;1251;59363;-73
2023/12/12 09:32:43;;;;;;;12.50;7.70;;;;;;;5.69;100.00;98260.64;109601;1251;66093;-73
2023/12/12 09:35:10;;;;;;;10.30;7.40;;;;;;;5.70;100.00;98259.17;109413;1254;61081;-74
2023/12/12 09:37:37;;;;;;;11.30;6.80;;;;;;;5.72;100.00;98254.30;109593;1251;63721;-74
2023/12/12 09:40:05;;;;;;;9.30;7.00;;;;;;;5.72;100.00;98247.41;109553;1251;59314;-74
2023/12/12 09:42:34;;;;;;;9.50;6.70;;;;;;;5.71;100.00;98243.41;109515;1251;59031;-74
2023/12/12 09:45:04;;;;;;;9.10;6.30;;;;;;;5.72;100.00;98244.65;109583;1250;66091;-74
2023/12/12 09:47:31;;;;;;;7.90;5.80;;;;;;;5.74;100.00;98241.17;109537;1253;60773;-74
2023/12/12 09:49:59;;;;;;;9.70;6.40;;;;;;;5.78;100.00;98238.81;109589;1251;64725;-74
2023/12/12 09:52:29;;;;;;;9.50;5.90;;;;;;;5.82;100.00;98239.30;109535;1250;58921;-74
2023/12/12 09:54:58;;;;;;;9.10;6.00;;;;;;;5.85;100.00;98238.36;109587;1251;59116;-74
2023/12/12 09:57:28;;;;;;;9.40;5.70;;;;;;;5.91;100.00;98238.04;109578;1251;67223;-74
2023/12/12 09:59:55;;;;;;;8.40;5.80;;;;;;;5.98;100.00;98238.36;109170;1251;61016;-74
2023/12/12 10:02:23;;;;;;;8.50;4.90;;;;;;;6.02;100.00;98242.52;109555;1251;65111;-74
2023/12/12 10:04:52;;;;;;;8.50;5.50;;;;;;;6.05;100.00;98243.94;109340;1251;59005;-75
2023/12/12 10:07:20;;;;;;;8.90;5.70;;;;;;;6.08;100.00;98246.05;109626;1251;59108;-75
2023/12/12 10:09:48;;;;;;;10.20;5.90;;;;;;;6.12;100.00;98245.77;109562;1250;67046;-74
2023/12/12 10:12:15;;;;;;;6.80;5.30;;;;;;;6.18;100.00;98242.94;109676;1250;61048;-78
2023/12/12 10:14:47;;;;;;;9.40;5.40;;;;;;;6.23;100.00;98246.54;109408;1251;64239;-74
2023/12/12 10:17:14;;;;;;;8.20;5.10;;;;;;;6.26;100.00;98246.71;109535;1251;59133;-73
2023/12/12 10:19:41;;;;;;;8.30;5.20;;;;;;;6.32;100.00;98250.55;109557;1251;59001;-72
2023/12/12 10:22:09;;;;;;;7.80;5.30;;;;;;;6.40;100.00;98250.63;109335;1252;64832;-74
2023/12/12 10:24:37;;;;;;;7.40;4.70;;;;;;;6.49;100.00;98249.02;109479;1253;59969;-73
2023/12/12 10:27:04;;;;;;;7.70;4.60;;;;;;;6.56;100.00;98253.66;109428;1252;63993;-73
2023/12/12 10:29:31;;;;;;;9.00;4.80;;;;;;;6.62;100.00;98251.36;109396;1251;58991;-73
2023/12/12 10:31:59;;;;;;;9.60;5.00;;;;;;;6.65;100.00;98251.67;109315;1252;59488;-73
2023/12/12 10:34:28;;;;;;;6.40;4.80;;;;;;;6.68;100.00;98252.60;109546;1251;65646;-74
2023/12/12 10:36:57;;;;;;;6.60;4.50;;;;;;;6.70;100.00;98249.95;109536;1251;60057;-76
2023/12/12 10:39:30;;;;;;;6.50;4.70;;;;;;;6.75;100.00;98250.02;109518;1251;64310;-74
2023/12/12 10:41:57;;;;;;;10.80;5.10;;;;;;;6.81;100.00;98245.92;109491;1251;58993;-74
2023/12/12 10:44:35;;;;;;;7.50;4.50;;;;;;;6.87;100.00;98245.52;109525;1251;58961;-74
2023/12/12 10:47:04;;;;;;;8.60;4.90;;;;;;;6.92;100.00;98248.04;109564;1251;67071;-74
2023/12/12 10:49:32;;;;;;;7.20;5.00;;;;;;;6.95;100.00;98250.64;109219;1251;61251;-75
2023/12/12 10:52:05;;;;;;;6.30;5.10;;;;;;;7.00;100.00;98249.30;109373;1251;63910;-75
2023/12/12 10:54:35;;;;;;;6.60;4.50;;;;;;;7.03;100.00;98245.73;109589;1251;59483;-74
2023/12/12 10:57:04;;;;;;;9.20;5.00;;;;;;;7.07;100.00;98244.29;109635;1251;58880;-73
2023/12/12 10:59:34;;;;;;;6.70;4.60;;;;;;;7.12;100.00;98247.13;109569;1253;66024;-74
2023/12/12 11:02:01;;;;;;;;;;;;;;;7.18;100.00;98248.13;109558;1250;61477;-74
2023/12/12 11:04:27;;;;;;;7.90;4.20;;;;;;;7.23;100.00;98246.56;109573;1251;65045;-74
2023/12/12 11:06:54;;;;;;;6.60;4.50;;;;;;;7.28;100.00;98248.55;109559;1251;58936;-74
2023/12/12 11:09:21;;;;;;;7.10;4.90;;;;;;;7.33;100.00;98246.11;109537;1250;59120;-74
2023/12/12 11:11:51;;;;;;;8.20;6.00;;;;;;;7.41;100.00;98242.73;109551;1250;65971;-74
2023/12/12 11:14:19;;;;;;;9.90;6.10;;;;;;;7.49;100.00;98244.87;109365;1251;60997;-75
2023/12/12 11:16:48;;;;;;;10.60;5.50;;;;;;;7.53;100.00;98248.49;109582;1250;64926;-75
2023/12/12 11:19:18;;;;;;;9.50;6.00;;;;;;;7.58;100.00;98249.02;109543;1251;59030;-75
2023/12/12 11:21:48;;;;;;;11.40;6.10;;;;;;;7.61;100.00;98252.35;109606;1251;59056;-74
2023/12/12 11:24:16;;;;;;;9.60;5.30;;;;;;;7.63;100.00;98250.29;109579;1251;67218;-74